sensor_id;sensor_type;location;lat;lon;timestamp;temperature;humidity
26378;DHT22;14078;50.974;6.786;2023-04-24T02:08:33;9.90;1.00
26378;DHT22;14078;50.974;6.786;2023-04-24T02:10:59;10.00;1.00
26378;DHT22;14078;50.974;6.786;2023-04-24T02:13:27;9.90;47.40
26378;DHT22;14078;50.974;6.786;2023-04-24T02:15:53;9.80;99.90
26378;DHT22;14078;50.974;6.786;2023-04-24T02:18:20;9.80;45.90
26378;DHT22;14078;50.974;6.786;2023-04-24T02:20:47;9.80;99.90
26378;DHT22;14078;50.974;6.786;2023-04-24T02:23:14;9.80;99.90
26378;DHT22;14078;50.974;6.786;2023-04-24T03:12:26;10.10;1.00
26378;DHT22;14078;50.974;6.786;2023-04-24T03:14:53;10.00;99.90
26378;DHT22;14078;50.974;6.786;2023-04-24T03:17:19;10.00;1.00
26378;DHT22;14078;50.974;6.786;2023-04-24T03:19:46;10.00;99.90
26378;DHT22;14078;50.974;6.786;2023-04-24T03:22:13;10.00;1.00
26378;DHT22;14078;50.974;6.786;2023-04-24T03:24:39;10.00;99.90
26378;DHT22;14078;50.974;6.786;2023-04-24T03:27:06;10.00;1.00
26378;DHT22;14078;50.974;6.786;2023-04-24T03:29:34;10.00;1.00
26378;DHT22;14078;50.974;6.786;2023-04-24T03:32:00;9.90;99.90
26378;DHT22;14078;50.974;6.786;2023-04-24T03:34:27;9.90;99.90
26378;DHT22;14078;50.974;6.786;2023-04-24T03:36:53;9.80;1.00
26378;DHT22;14078;50.974;6.786;2023-04-24T03:39:20;9.80;99.90
26378;DHT22;14078;50.974;6.786;2023-04-24T03:41:46;9.80;99.90
26378;DHT22;14078;50.974;6.786;2023-04-24T03:44:13;9.80;99.90
26378;DHT22;14078;50.974;6.786;2023-04-24T03:46:41;9.80;17.70
26378;DHT22;14078;50.974;6.786;2023-04-24T03:49:07;9.80;1.00
26378;DHT22;14078;50.974;6.786;2023-04-24T03:51:34;9.80;1.00
26378;DHT22;14078;50.974;6.786;2023-04-24T03:54:00;9.80;96.90
26378;DHT22;14078;50.974;6.786;2023-04-24T03:56:27;9.90;99.90
26378;DHT22;14078;50.974;6.786;2023-04-24T03:58:53;9.80;56.50
26378;DHT22;14078;50.974;6.786;2023-04-24T04:01:20;9.90;99.90
26378;DHT22;14078;50.974;6.786;2023-04-24T04:03:48;9.90;99.90
26378;DHT22;14078;50.974;6.786;2023-04-24T04:06:15;9.90;99.90
26378;DHT22;14078;50.974;6.786;2023-04-24T04:08:41;10.00;99.90
26378;DHT22;14078;50.974;6.786;2023-04-24T04:11:08;9.90;1.00
26378;DHT22;14078;50.974;6.786;2023-04-24T04:13:34;9.90;1.00
26378;DHT22;14078;50.974;6.786;2023-04-24T04:16:01;9.90;99.90
26378;DHT22;14078;50.974;6.786;2023-04-24T04:18:29;9.90;99.90
26378;DHT22;14078;50.974;6.786;2023-04-24T04:20:57;9.90;99.90
26378;DHT22;14078;50.974;6.786;2023-04-24T04:23:23;9.90;1.00
26378;DHT22;14078;50.974;6.786;2023-04-24T04:25:51;9.90;99.90
26378;DHT22;14078;50.974;6.786;2023-04-24T04:28:18;9.80;99.90
26378;DHT22;14078;50.974;6.786;2023-04-24T04:30:45;9.90;1.00
26378;DHT22;14078;50.974;6.786;2023-04-24T04:33:12;9.90;1.00
26378;DHT22;14078;50.974;6.786;2023-04-24T04:35:39;9.90;1.00
26378;DHT22;14078;50.974;6.786;2023-04-24T04:38:08;9.90;99.90
26378;DHT22;14078;50.974;6.786;2023-04-24T04:40:36;10.00;1.00
26378;DHT22;14078;50.974;6.786;2023-04-24T04:43:02;9.90;1.00
26378;DHT22;14078;50.974;6.786;2023-04-24T04:45:29;10.00;99.90
26378;DHT22;14078;50.974;6.786;2023-04-24T04:47:55;9.90;21.60
26378;DHT22;14078;50.974;6.786;2023-04-24T04:50:22;9.90;99.90
26378;DHT22;14078;50.974;6.786;2023-04-24T04:52:49;10.00;1.00
26378;DHT22;14078;50.974;6.786;2023-04-24T04:55:17;9.90;1.00
26378;DHT22;14078;50.974;6.786;2023-04-24T04:57:43;10.00;72.40
26378;DHT22;14078;50.974;6.786;2023-04-24T05:00:10;10.00;99.90
26378;DHT22;14078;50.974;6.786;2023-04-24T05:02:37;10.00;1.00
26378;DHT22;14078;50.974;6.786;2023-04-24T05:05:04;10.00;99.90
26378;DHT22;14078;50.974;6.786;2023-04-24T05:07:31;10.00;1.00
26378;DHT22;14078;50.974;6.786;2023-04-24T05:09:58;10.20;99.90
26378;DHT22;14078;50.974;6.786;2023-04-24T05:12:26;10.10;1.00
26378;DHT22;14078;50.974;6.786;2023-04-24T05:14:52;10.10;1.00
26378;DHT22;14078;50.974;6.786;2023-04-24T05:17:19;10.10;99.90
26378;DHT22;14078;50.974;6.786;2023-04-24T05:19:46;10.10;99.90
26378;DHT22;14078;50.974;6.786;2023-04-24T05:22:13;10.10;5.60
26378;DHT22;14078;50.974;6.786;2023-04-24T05:24:40;10.10;99.90
26378;DHT22;14078;50.974;6.786;2023-04-24T05:27:06;10.00;1.00
26378;DHT22;14078;50.974;6.786;2023-04-24T05:46:46;9.60;1.00
26378;DHT22;14078;50.974;6.786;2023-04-24T05:49:12;9.60;13.00
26378;DHT22;14078;50.974;6.786;2023-04-24T05:51:39;9.60;5.20
26378;DHT22;14078;50.974;6.786;2023-04-24T05:54:05;9.60;1.00
26378;DHT22;14078;50.974;6.786;2023-04-24T06:01:27;9.70;1.00
26378;DHT22;14078;50.974;6.786;2023-04-24T06:03:55;9.70;1.00
26378;DHT22;14078;50.974;6.786;2023-04-24T06:06:21;9.60;1.00
26378;DHT22;14078;50.974;6.786;2023-04-24T06:08:48;9.60;1.00
26378;DHT22;14078;50.974;6.786;2023-04-24T06:11:14;9.60;1.00
26378;DHT22;14078;50.974;6.786;2023-04-24T06:13:41;9.60;1.00
26378;DHT22;14078;50.974;6.786;2023-04-24T06:16:07;9.50;12.60
26378;DHT22;14078;50.974;6.786;2023-04-24T06:18:34;9.50;1.00
26378;DHT22;14078;50.974;6.786;2023-04-24T06:21:02;9.50;67.30
26378;DHT22;14078;50.974;6.786;2023-04-24T06:23:28;9.50;50.50
26378;DHT22;14078;50.974;6.786;2023-04-24T06:25:57;9.40;33.10
26378;DHT22;14078;50.974;6.786;2023-04-24T06:28:24;9.40;57.10
26378;DHT22;14078;50.974;6.786;2023-04-24T06:30:50;9.40;51.30
26378;DHT22;14078;50.974;6.786;2023-04-24T06:33:17;9.30;84.60
26378;DHT22;14078;50.974;6.786;2023-04-24T06:35:43;9.30;94.20
26378;DHT22;14078;50.974;6.786;2023-04-24T06:38:11;9.20;99.90
26378;DHT22;14078;50.974;6.786;2023-04-24T06:40:38;9.10;99.90
26378;DHT22;14078;50.974;6.786;2023-04-24T06:43:04;9.00;99.90
26378;DHT22;14078;50.974;6.786;2023-04-24T06:45:31;9.00;99.90
26378;DHT22;14078;50.974;6.786;2023-04-24T06:47:58;8.90;99.90
26378;DHT22;14078;50.974;6.786;2023-04-24T06:50:24;8.90;99.90
26378;DHT22;14078;50.974;6.786;2023-04-24T06:52:51;8.80;99.90
26378;DHT22;14078;50.974;6.786;2023-04-24T06:55:19;8.80;99.90
26378;DHT22;14078;50.974;6.786;2023-04-24T06:57:45;8.80;99.90
26378;DHT22;14078;50.974;6.786;2023-04-24T07:00:12;8.80;99.90
26378;DHT22;14078;50.974;6.786;2023-04-24T07:02:39;8.70;99.90
26378;DHT22;14078;50.974;6.786;2023-04-24T07:05:05;8.70;99.90
26378;DHT22;14078;50.974;6.786;2023-04-24T07:07:33;8.60;99.90
26378;DHT22;14078;50.974;6.786;2023-04-24T07:10:03;8.60;99.90
26378;DHT22;14078;50.974;6.786;2023-04-24T07:12:31;8.60;99.90
26378;DHT22;14078;50.974;6.786;2023-04-24T07:14:58;8.60;99.90
26378;DHT22;14078;50.974;6.786;2023-04-24T07:17:25;8.60;99.90
26378;DHT22;14078;50.974;6.786;2023-04-24T07:19:52;8.60;99.90
26378;DHT22;14078;50.974;6.786;2023-04-24T07:22:18;8.50;99.90
26378;DHT22;14078;50.974;6.786;2023-04-24T07:24:44;8.50;99.90
26378;DHT22;14078;50.974;6.786;2023-04-24T07:27:11;8.50;99.90
26378;DHT22;14078;50.974;6.786;2023-04-24T07:29:41;8.50;99.90
26378;DHT22;14078;50.974;6.786;2023-04-24T07:32:08;8.50;99.90
26378;DHT22;14078;50.974;6.786;2023-04-24T07:34:34;8.50;99.90
26378;DHT22;14078;50.974;6.786;2023-04-24T07:37:01;8.40;99.90
26378;DHT22;14078;50.974;6.786;2023-04-24T07:39:27;8.30;99.90
26378;DHT22;14078;50.974;6.786;2023-04-24T07:41:54;8.30;99.90
26378;DHT22;14078;50.974;6.786;2023-04-24T07:44:21;8.20;99.90
26378;DHT22;14078;50.974;6.786;2023-04-24T07:46:48;8.10;99.90
26378;DHT22;14078;50.974;6.786;2023-04-24T07:49:15;8.00;99.90
26378;DHT22;14078;50.974;6.786;2023-04-24T07:51:41;7.90;99.90
26378;DHT22;14078;50.974;6.786;2023-04-24T07:54:08;7.90;99.90
26378;DHT22;14078;50.974;6.786;2023-04-24T07:56:35;7.80;99.90
26378;DHT22;14078;50.974;6.786;2023-04-24T07:59:04;7.70;99.90
26378;DHT22;14078;50.974;6.786;2023-04-24T08:01:30;7.60;99.90
26378;DHT22;14078;50.974;6.786;2023-04-24T08:03:58;7.60;99.90
26378;DHT22;14078;50.974;6.786;2023-04-24T08:06:25;7.60;99.90
26378;DHT22;14078;50.974;6.786;2023-04-24T08:08:55;7.60;99.90
26378;DHT22;14078;50.974;6.786;2023-04-24T08:11:22;7.50;99.90
26378;DHT22;14078;50.974;6.786;2023-04-24T08:13:48;7.50;99.90
26378;DHT22;14078;50.974;6.786;2023-04-24T08:16:15;7.40;99.90
26378;DHT22;14078;50.974;6.786;2023-04-24T08:18:41;7.40;99.90
26378;DHT22;14078;50.974;6.786;2023-04-24T08:21:09;7.30;99.90
26378;DHT22;14078;50.974;6.786;2023-04-24T08:23:38;7.40;99.90
26378;DHT22;14078;50.974;6.786;2023-04-24T08:26:04;7.40;99.90
26378;DHT22;14078;50.974;6.786;2023-04-24T08:28:32;7.30;99.90
26378;DHT22;14078;50.974;6.786;2023-04-24T08:30:59;7.30;99.90
26378;DHT22;14078;50.974;6.786;2023-04-24T08:33:25;7.30;99.90
26378;DHT22;14078;50.974;6.786;2023-04-24T08:35:52;7.30;99.90
26378;DHT22;14078;50.974;6.786;2023-04-24T08:38:20;7.30;99.90
26378;DHT22;14078;50.974;6.786;2023-04-24T08:40:46;7.30;99.90
26378;DHT22;14078;50.974;6.786;2023-04-24T08:43:14;7.30;99.90
26378;DHT22;14078;50.974;6.786;2023-04-24T08:45:41;7.30;99.90
26378;DHT22;14078;50.974;6.786;2023-04-24T08:48:08;7.30;99.90
26378;DHT22;14078;50.974;6.786;2023-04-24T08:50:35;7.30;99.90
26378;DHT22;14078;50.974;6.786;2023-04-24T08:53:03;7.40;99.90
26378;DHT22;14078;50.974;6.786;2023-04-24T08:55:31;7.40;99.90
26378;DHT22;14078;50.974;6.786;2023-04-24T08:57:59;7.30;99.90
26378;DHT22;14078;50.974;6.786;2023-04-24T09:00:27;7.30;99.90
26378;DHT22;14078;50.974;6.786;2023-04-24T09:02:54;7.30;99.90
26378;DHT22;14078;50.974;6.786;2023-04-24T09:05:21;7.30;99.90
26378;DHT22;14078;50.974;6.786;2023-04-24T09:07:49;7.30;99.90
26378;DHT22;14078;50.974;6.786;2023-04-24T09:10:17;7.40;99.90
26378;DHT22;14078;50.974;6.786;2023-04-24T09:12:45;7.40;99.90
26378;DHT22;14078;50.974;6.786;2023-04-24T09:15:12;7.50;99.90
26378;DHT22;14078;50.974;6.786;2023-04-24T09:17:39;7.50;99.90
26378;DHT22;14078;50.974;6.786;2023-04-24T09:20:06;7.60;99.90
26378;DHT22;14078;50.974;6.786;2023-04-24T09:22:33;7.60;99.90
26378;DHT22;14078;50.974;6.786;2023-04-24T09:25:01;7.60;99.90
26378;DHT22;14078;50.974;6.786;2023-04-24T09:27:28;7.60;99.90
26378;DHT22;14078;50.974;6.786;2023-04-24T09:29:56;7.60;99.90
26378;DHT22;14078;50.974;6.786;2023-04-24T09:32:23;7.60;99.90
26378;DHT22;14078;50.974;6.786;2023-04-24T09:35:04;7.70;99.90
26378;DHT22;14078;50.974;6.786;2023-04-24T09:37:34;7.70;99.90
26378;DHT22;14078;50.974;6.786;2023-04-24T09:40:07;7.70;99.90
26378;DHT22;14078;50.974;6.786;2023-04-24T09:42:35;7.80;99.90
26378;DHT22;14078;50.974;6.786;2023-04-24T09:45:04;7.90;99.90
26378;DHT22;14078;50.974;6.786;2023-04-24T09:47:35;8.00;99.90
26378;DHT22;14078;50.974;6.786;2023-04-24T09:50:08;8.10;99.90
26378;DHT22;14078;50.974;6.786;2023-04-24T09:52:35;8.10;99.90
26378;DHT22;14078;50.974;6.786;2023-04-24T09:55:01;8.20;99.90
26378;DHT22;14078;50.974;6.786;2023-04-24T09:57:28;8.30;99.90
26378;DHT22;14078;50.974;6.786;2023-04-24T09:59:54;8.40;99.90
26378;DHT22;14078;50.974;6.786;2023-04-24T10:02:22;8.40;99.90
26378;DHT22;14078;50.974;6.786;2023-04-24T10:04:53;8.40;99.90
26378;DHT22;14078;50.974;6.786;2023-04-24T10:07:20;8.50;99.90
26378;DHT22;14078;50.974;6.786;2023-04-24T10:09:47;8.60;99.90
26378;DHT22;14078;50.974;6.786;2023-04-24T10:12:13;8.60;99.90
26378;DHT22;14078;50.974;6.786;2023-04-24T10:14:40;8.60;99.90
26378;DHT22;14078;50.974;6.786;2023-04-24T10:17:07;8.70;99.90
26378;DHT22;14078;50.974;6.786;2023-04-24T10:19:35;8.70;99.90
26378;DHT22;14078;50.974;6.786;2023-04-24T10:22:01;8.80;99.90
26378;DHT22;14078;50.974;6.786;2023-04-24T10:24:28;8.90;99.90
26378;DHT22;14078;50.974;6.786;2023-04-24T10:26:55;8.90;99.90
26378;DHT22;14078;50.974;6.786;2023-04-24T10:29:23;8.90;99.90
26378;DHT22;14078;50.974;6.786;2023-04-24T10:31:50;9.00;99.90
26378;DHT22;14078;50.974;6.786;2023-04-24T10:34:17;9.10;99.90
26378;DHT22;14078;50.974;6.786;2023-04-24T10:36:46;9.20;99.90
26378;DHT22;14078;50.974;6.786;2023-04-24T10:39:14;9.20;99.90
26378;DHT22;14078;50.974;6.786;2023-04-24T10:41:41;9.20;99.90
26378;DHT22;14078;50.974;6.786;2023-04-24T10:44:08;9.30;99.90
26378;DHT22;14078;50.974;6.786;2023-04-24T10:46:35;9.40;99.90
26378;DHT22;14078;50.974;6.786;2023-04-24T10:49:03;9.60;99.90
26378;DHT22;14078;50.974;6.786;2023-04-24T10:51:42;9.70;99.90
26378;DHT22;14078;50.974;6.786;2023-04-24T10:54:22;9.80;99.90
26378;DHT22;14078;50.974;6.786;2023-04-24T10:56:49;9.90;99.90
26378;DHT22;14078;50.974;6.786;2023-04-24T10:59:23;9.80;99.90
26378;DHT22;14078;50.974;6.786;2023-04-24T11:01:52;9.70;99.90
26378;DHT22;14078;50.974;6.786;2023-04-24T11:04:28;9.60;99.90
26378;DHT22;14078;50.974;6.786;2023-04-24T11:06:55;9.60;99.90
26378;DHT22;14078;50.974;6.786;2023-04-24T11:09:24;9.50;99.90
26378;DHT22;14078;50.974;6.786;2023-04-24T11:11:53;9.50;99.90
26378;DHT22;14078;50.974;6.786;2023-04-24T11:14:28;9.50;99.90
26378;DHT22;14078;50.974;6.786;2023-04-24T11:16:55;9.40;99.90
26378;DHT22;14078;50.974;6.786;2023-04-24T11:19:22;9.40;99.90
26378;DHT22;14078;50.974;6.786;2023-04-24T11:21:54;9.50;99.90
26378;DHT22;14078;50.974;6.786;2023-04-24T11:24:26;9.60;99.90
26378;DHT22;14078;50.974;6.786;2023-04-24T11:26:53;9.70;99.90
26378;DHT22;14078;50.974;6.786;2023-04-24T11:29:20;9.80;99.90
26378;DHT22;14078;50.974;6.786;2023-04-24T11:31:47;9.80;99.90
26378;DHT22;14078;50.974;6.786;2023-04-24T11:34:17;9.80;99.90
26378;DHT22;14078;50.974;6.786;2023-04-24T11:36:43;9.80;99.90
26378;DHT22;14078;50.974;6.786;2023-04-24T11:39:10;9.70;99.90
26378;DHT22;14078;50.974;6.786;2023-04-24T11:41:38;9.60;99.90
26378;DHT22;14078;50.974;6.786;2023-04-24T11:44:06;9.60;99.90
26378;DHT22;14078;50.974;6.786;2023-04-24T11:46:32;9.50;99.90
26378;DHT22;14078;50.974;6.786;2023-04-24T11:48:59;9.40;99.90
26378;DHT22;14078;50.974;6.786;2023-04-24T11:51:26;9.50;99.90
26378;DHT22;14078;50.974;6.786;2023-04-24T11:53:53;9.60;99.90
26378;DHT22;14078;50.974;6.786;2023-04-24T11:56:20;9.70;99.90
26378;DHT22;14078;50.974;6.786;2023-04-24T11:58:51;9.80;99.90
26378;DHT22;14078;50.974;6.786;2023-04-24T12:01:17;9.90;99.90
26378;DHT22;14078;50.974;6.786;2023-04-24T12:03:46;10.00;99.90
26378;DHT22;14078;50.974;6.786;2023-04-24T12:06:13;10.10;99.90
26378;DHT22;14078;50.974;6.786;2023-04-24T12:08:40;10.00;99.90
26378;DHT22;14078;50.974;6.786;2023-04-24T12:11:07;10.00;99.90
26378;DHT22;14078;50.974;6.786;2023-04-24T12:13:33;10.10;99.90
26378;DHT22;14078;50.974;6.786;2023-04-24T12:16:02;10.10;99.90
26378;DHT22;14078;50.974;6.786;2023-04-24T12:18:29;10.30;99.90
26378;DHT22;14078;50.974;6.786;2023-04-24T12:21:03;10.30;99.90
26378;DHT22;14078;50.974;6.786;2023-04-24T12:23:42;10.50;99.90
26378;DHT22;14078;50.974;6.786;2023-04-24T12:26:08;10.60;99.90
26378;DHT22;14078;50.974;6.786;2023-04-24T12:28:35;10.70;99.90
26378;DHT22;14078;50.974;6.786;2023-04-24T12:31:03;10.80;99.90
26378;DHT22;14078;50.974;6.786;2023-04-24T12:33:32;10.90;99.90
26378;DHT22;14078;50.974;6.786;2023-04-24T12:35:59;10.80;99.90
26378;DHT22;14078;50.974;6.786;2023-04-24T12:38:26;10.60;99.90
26378;DHT22;14078;50.974;6.786;2023-04-24T12:41:01;10.40;99.90
26378;DHT22;14078;50.974;6.786;2023-04-24T12:43:28;10.30;99.90
26378;DHT22;14078;50.974;6.786;2023-04-24T12:45:54;10.30;99.90
26378;DHT22;14078;50.974;6.786;2023-04-24T12:48:22;10.30;99.90
26378;DHT22;14078;50.974;6.786;2023-04-24T12:50:49;10.40;99.90
26378;DHT22;14078;50.974;6.786;2023-04-24T12:53:15;10.50;99.90
26378;DHT22;14078;50.974;6.786;2023-04-24T12:55:42;10.50;99.90
26378;DHT22;14078;50.974;6.786;2023-04-24T12:58:09;10.60;99.90
26378;DHT22;14078;50.974;6.786;2023-04-24T13:00:36;10.70;99.90
26378;DHT22;14078;50.974;6.786;2023-04-24T13:03:03;11.00;99.90
26378;DHT22;14078;50.974;6.786;2023-04-24T13:05:30;11.10;99.90
26378;DHT22;14078;50.974;6.786;2023-04-24T13:07:57;11.20;99.90
26378;DHT22;14078;50.974;6.786;2023-04-24T13:10:24;11.50;99.90
26378;DHT22;14078;50.974;6.786;2023-04-24T13:12:50;11.70;99.90
26378;DHT22;14078;50.974;6.786;2023-04-24T13:15:17;11.90;99.90
26378;DHT22;14078;50.974;6.786;2023-04-24T13:17:43;12.10;98.00
26378;DHT22;14078;50.974;6.786;2023-04-24T13:20:10;12.00;7.40
26378;DHT22;14078;50.974;6.786;2023-04-24T13:22:38;11.90;1.00
26378;DHT22;14078;50.974;6.786;2023-04-24T13:25:05;12.10;1.00
26378;DHT22;14078;50.974;6.786;2023-04-24T13:27:32;12.20;1.00
26378;DHT22;14078;50.974;6.786;2023-04-24T13:29:59;12.20;1.00
26378;DHT22;14078;50.974;6.786;2023-04-24T13:32:25;12.20;99.90
26378;DHT22;14078;50.974;6.786;2023-04-24T13:34:53;12.20;99.90
26378;DHT22;14078;50.974;6.786;2023-04-24T13:37:19;12.20;99.90
26378;DHT22;14078;50.974;6.786;2023-04-24T13:39:47;12.00;99.90
26378;DHT22;14078;50.974;6.786;2023-04-24T13:42:14;12.00;1.00
26378;DHT22;14078;50.974;6.786;2023-04-24T13:44:40;12.20;1.00
26378;DHT22;14078;50.974;6.786;2023-04-24T13:47:07;12.10;99.90
26378;DHT22;14078;50.974;6.786;2023-04-24T13:49:33;12.10;99.90
26378;DHT22;14078;50.974;6.786;2023-04-24T13:52:00;12.00;99.90
26378;DHT22;14078;50.974;6.786;2023-04-24T13:54:27;12.00;99.90
26378;DHT22;14078;50.974;6.786;2023-04-24T13:56:55;12.10;99.90
26378;DHT22;14078;50.974;6.786;2023-04-24T13:59:22;12.20;99.90
26378;DHT22;14078;50.974;6.786;2023-04-24T14:01:48;12.10;1.00
26378;DHT22;14078;50.974;6.786;2023-04-24T14:04:15;12.10;99.90
26378;DHT22;14078;50.974;6.786;2023-04-24T14:06:42;12.10;99.90
26378;DHT22;14078;50.974;6.786;2023-04-24T14:09:09;12.10;1.00
26378;DHT22;14078;50.974;6.786;2023-04-24T14:11:35;12.10;99.90
26378;DHT22;14078;50.974;6.786;2023-04-24T14:14:03;12.10;99.90
26378;DHT22;14078;50.974;6.786;2023-04-24T14:16:30;12.00;99.90
26378;DHT22;14078;50.974;6.786;2023-04-24T14:18:57;12.10;99.90
26378;DHT22;14078;50.974;6.786;2023-04-24T14:21:23;12.10;99.90
26378;DHT22;14078;50.974;6.786;2023-04-24T14:23:50;12.20;1.00
26378;DHT22;14078;50.974;6.786;2023-04-24T14:26:16;12.20;1.00
26378;DHT22;14078;50.974;6.786;2023-04-24T14:28:43;12.30;99.90
26378;DHT22;14078;50.974;6.786;2023-04-24T14:31:11;12.50;1.00
26378;DHT22;14078;50.974;6.786;2023-04-24T14:33:37;12.70;1.00
26378;DHT22;14078;50.974;6.786;2023-04-24T14:36:04;12.80;99.90
26378;DHT22;14078;50.974;6.786;2023-04-24T14:38:30;12.80;99.90
26378;DHT22;14078;50.974;6.786;2023-04-24T14:40:57;12.60;99.90
26378;DHT22;14078;50.974;6.786;2023-04-24T14:43:24;12.90;99.90
26378;DHT22;14078;50.974;6.786;2023-04-24T14:45:50;13.10;1.00
26378;DHT22;14078;50.974;6.786;2023-04-24T14:48:18;13.20;1.00
26378;DHT22;14078;50.974;6.786;2023-04-24T14:50:45;13.30;1.00
26378;DHT22;14078;50.974;6.786;2023-04-24T14:53:11;13.30;99.90
26378;DHT22;14078;50.974;6.786;2023-04-24T14:55:38;13.50;99.90
26378;DHT22;14078;50.974;6.786;2023-04-24T14:58:04;13.60;25.20
26378;DHT22;14078;50.974;6.786;2023-04-24T15:00:31;13.70;99.90
26378;DHT22;14078;50.974;6.786;2023-04-24T15:02:58;14.20;99.90
26378;DHT22;14078;50.974;6.786;2023-04-24T15:05:26;14.10;99.90
26378;DHT22;14078;50.974;6.786;2023-04-24T15:07:52;14.40;1.00
26378;DHT22;14078;50.974;6.786;2023-04-24T15:10:19;14.50;1.00
26378;DHT22;14078;50.974;6.786;2023-04-24T15:12:48;14.20;99.90
26378;DHT22;14078;50.974;6.786;2023-04-24T15:15:14;14.20;18.70
26378;DHT22;14078;50.974;6.786;2023-04-24T15:25:05;14.30;99.90
26378;DHT22;14078;50.974;6.786;2023-04-24T15:32:25;14.10;99.90
26378;DHT22;14078;50.974;6.786;2023-04-24T15:34:52;13.80;1.00
26378;DHT22;14078;50.974;6.786;2023-04-24T15:37:19;13.70;1.00
26378;DHT22;14078;50.974;6.786;2023-04-24T15:39:45;13.40;4.70
26378;DHT22;14078;50.974;6.786;2023-04-24T15:42:13;13.30;81.30
26378;DHT22;14078;50.974;6.786;2023-04-24T15:44:40;13.30;80.50
26378;DHT22;14078;50.974;6.786;2023-04-24T15:47:06;13.10;99.90
26378;DHT22;14078;50.974;6.786;2023-04-24T15:49:33;13.40;1.00
26378;DHT22;14078;50.974;6.786;2023-04-24T15:51:59;13.90;1.00
26378;DHT22;14078;50.974;6.786;2023-04-24T15:54:26;13.70;1.00
26378;DHT22;14078;50.974;6.786;2023-04-24T15:56:52;13.50;1.00
26378;DHT22;14078;50.974;6.786;2023-04-24T15:59:20;13.10;1.00
26378;DHT22;14078;50.974;6.786;2023-04-24T16:01:47;12.70;74.50
26378;DHT22;14078;50.974;6.786;2023-04-24T16:04:14;12.80;99.90
26378;DHT22;14078;50.974;6.786;2023-04-24T16:06:40;13.00;99.90
26378;DHT22;14078;50.974;6.786;2023-04-24T16:09:07;13.00;1.00
26378;DHT22;14078;50.974;6.786;2023-04-24T16:11:34;12.80;4.60
26378;DHT22;14078;50.974;6.786;2023-04-24T16:14:03;12.90;99.90
26378;DHT22;14078;50.974;6.786;2023-04-24T16:16:31;12.70;99.90
26378;DHT22;14078;50.974;6.786;2023-04-24T16:18:58;12.70;99.90
26378;DHT22;14078;50.974;6.786;2023-04-24T16:21:25;12.70;99.90
26378;DHT22;14078;50.974;6.786;2023-04-24T16:23:51;12.70;99.90
26378;DHT22;14078;50.974;6.786;2023-04-24T16:26:18;12.70;99.90
26378;DHT22;14078;50.974;6.786;2023-04-24T16:28:44;12.70;99.90
26378;DHT22;14078;50.974;6.786;2023-04-24T16:31:11;12.70;99.90
26378;DHT22;14078;50.974;6.786;2023-04-24T16:33:39;12.60;13.00
26378;DHT22;14078;50.974;6.786;2023-04-24T16:36:05;12.60;1.00
26378;DHT22;14078;50.974;6.786;2023-04-24T16:38:33;12.50;22.10
26378;DHT22;14078;50.974;6.786;2023-04-24T16:41:00;12.60;1.00
26378;DHT22;14078;50.974;6.786;2023-04-24T16:43:26;12.30;28.40
26378;DHT22;14078;50.974;6.786;2023-04-24T17:08:04;12.20;1.00
26378;DHT22;14078;50.974;6.786;2023-04-24T17:10:30;12.30;99.90
26378;DHT22;14078;50.974;6.786;2023-04-24T17:12:57;12.30;99.90
26378;DHT22;14078;50.974;6.786;2023-04-24T17:15:24;12.20;1.00
26378;DHT22;14078;50.974;6.786;2023-04-24T17:17:51;12.10;99.90
26378;DHT22;14078;50.974;6.786;2023-04-24T17:20:17;12.10;99.90
26378;DHT22;14078;50.974;6.786;2023-04-24T17:22:44;12.10;99.90
26378;DHT22;14078;50.974;6.786;2023-04-24T17:39:56;11.70;99.90
26378;DHT22;14078;50.974;6.786;2023-04-24T17:42:22;11.70;1.00
26378;DHT22;14078;50.974;6.786;2023-04-24T17:47:17;11.50;99.90
26378;DHT22;14078;50.974;6.786;2023-04-24T17:49:46;11.60;59.10
26378;DHT22;14078;50.974;6.786;2023-04-24T17:52:13;11.50;86.40
26378;DHT22;14078;50.974;6.786;2023-04-24T17:54:41;11.40;99.90
26378;DHT22;14078;50.974;6.786;2023-04-24T17:57:09;11.30;1.00
26378;DHT22;14078;50.974;6.786;2023-04-24T17:59:36;11.20;99.90
26378;DHT22;14078;50.974;6.786;2023-04-24T18:02:02;11.10;1.00
26378;DHT22;14078;50.974;6.786;2023-04-24T18:04:29;11.10;99.90
26378;DHT22;14078;50.974;6.786;2023-04-24T18:06:55;11.00;1.00
26378;DHT22;14078;50.974;6.786;2023-04-24T18:09:22;10.90;99.90
26378;DHT22;14078;50.974;6.786;2023-04-24T18:11:48;10.80;27.40
26378;DHT22;14078;50.974;6.786;2023-04-24T18:14:16;10.70;1.00
26378;DHT22;14078;50.974;6.786;2023-04-24T18:16:43;10.60;1.40
26378;DHT22;14078;50.974;6.786;2023-04-24T18:19:09;10.60;99.90
26378;DHT22;14078;50.974;6.786;2023-04-24T18:21:36;10.50;40.20
26378;DHT22;14078;50.974;6.786;2023-04-24T18:24:03;10.40;99.90
26378;DHT22;14078;50.974;6.786;2023-04-24T18:26:29;10.30;99.90
26378;DHT22;14078;50.974;6.786;2023-04-24T18:28:56;10.30;1.00
26378;DHT22;14078;50.974;6.786;2023-04-24T18:31:23;10.20;85.60
26378;DHT22;14078;50.974;6.786;2023-04-24T18:33:50;10.10;99.90
26378;DHT22;14078;50.974;6.786;2023-04-24T18:36:18;10.10;99.90
26378;DHT22;14078;50.974;6.786;2023-04-24T18:38:44;10.00;99.90
26378;DHT22;14078;50.974;6.786;2023-04-24T18:41:11;9.90;99.90
26378;DHT22;14078;50.974;6.786;2023-04-24T18:43:38;9.90;99.90
26378;DHT22;14078;50.974;6.786;2023-04-24T18:46:05;9.80;99.90
26378;DHT22;14078;50.974;6.786;2023-04-24T18:48:32;9.70;99.90
26378;DHT22;14078;50.974;6.786;2023-04-24T18:50:59;9.70;99.90
26378;DHT22;14078;50.974;6.786;2023-04-24T18:53:25;9.70;99.90
26378;DHT22;14078;50.974;6.786;2023-04-24T18:55:52;9.60;99.90
26378;DHT22;14078;50.974;6.786;2023-04-24T18:58:18;9.60;99.90
26378;DHT22;14078;50.974;6.786;2023-04-24T19:00:45;9.60;99.90
26378;DHT22;14078;50.974;6.786;2023-04-24T19:03:11;9.50;99.90
26378;DHT22;14078;50.974;6.786;2023-04-24T19:05:39;9.50;99.90
26378;DHT22;14078;50.974;6.786;2023-04-24T19:08:06;9.40;1.00
26378;DHT22;14078;50.974;6.786;2023-04-24T19:10:32;9.40;1.00
26378;DHT22;14078;50.974;6.786;2023-04-24T19:13:01;9.40;1.00
26378;DHT22;14078;50.974;6.786;2023-04-24T19:15:27;9.30;99.90
26378;DHT22;14078;50.974;6.786;2023-04-24T19:17:54;9.30;99.90
26378;DHT22;14078;50.974;6.786;2023-04-24T19:20:21;9.30;99.90
26378;DHT22;14078;50.974;6.786;2023-04-24T19:22:49;9.30;1.00
26378;DHT22;14078;50.974;6.786;2023-04-24T19:25:16;9.30;1.00
26378;DHT22;14078;50.974;6.786;2023-04-24T19:27:42;9.30;1.00
26378;DHT22;14078;50.974;6.786;2023-04-24T19:30:09;9.30;1.00
26378;DHT22;14078;50.974;6.786;2023-04-24T19:32:36;9.30;1.00
26378;DHT22;14078;50.974;6.786;2023-04-24T19:35:02;9.30;1.00
26378;DHT22;14078;50.974;6.786;2023-04-24T19:37:29;9.30;1.00
26378;DHT22;14078;50.974;6.786;2023-04-24T19:39:57;9.30;99.90
26378;DHT22;14078;50.974;6.786;2023-04-24T19:42:24;9.30;1.00
26378;DHT22;14078;50.974;6.786;2023-04-24T19:44:50;9.30;1.00
26378;DHT22;14078;50.974;6.786;2023-04-24T19:47:17;9.30;99.90
26378;DHT22;14078;50.974;6.786;2023-04-24T19:49:43;9.30;99.90